Time;durP1;ratioP1;P1;durP2;ratioP2;P2;SDS_P1;SDS_P2;PMS_P1;PMS_P2;Temp;Humidity;BMP_temperature;BMP_pressure;BME280_temperature;BME280_humidity;BME280_pressure;Samples;Min_cycle;Max_cycle;Signal;HPM_P1;HPM_P2
2022/01/09 06:00:51;;;;;;;0.60;0.40;;;4.60;97.20;;;;;;1695444;29;20710;-85
2022/01/09 06:01:41;;;;;;;0.60;0.40;;;4.60;97.20;;;;;;1695394;29;20215;-85
2022/01/09 06:02:33;;;;;;;0.60;0.40;;;4.60;97.20;;;;;;1695375;29;20288;-84
2022/01/09 06:03:24;;;;;;;0.60;0.47;;;4.60;97.20;;;;;;1695445;29;20204;-84
2022/01/09 06:04:16;;;;;;;0.87;0.40;;;4.60;97.20;;;;;;1695466;29;20202;-84
2022/01/09 06:05:07;;;;;;;0.70;0.40;;;4.60;97.20;;;;;;1693773;29;20968;-85
2022/01/09 06:05:59;;;;;;;0.60;0.40;;;4.60;97.20;;;;;;1691513;29;20188;-85
2022/01/09 06:06:50;;;;;;;0.70;0.45;;;4.70;97.20;;;;;;1688974;29;20205;-85
2022/01/09 06:07:42;;;;;;;0.70;0.40;;;4.70;97.20;;;;;;1688617;29;20204;-84
2022/01/09 06:08:33;;;;;;;0.80;0.50;;;4.70;97.20;;;;;;1688640;29;20232;-85
2022/01/09 06:09:25;;;;;;;0.80;0.50;;;4.70;97.20;;;;;;1688709;29;20205;-85
2022/01/09 06:10:16;;;;;;;0.80;0.45;;;4.70;97.20;;;;;;1689014;29;20477;-85
2022/01/09 06:11:07;;;;;;;0.60;0.40;;;4.70;97.20;;;;;;1688774;29;20220;-85
2022/01/09 06:11:58;;;;;;;1.00;0.45;;;4.70;97.20;;;;;;1689098;29;20829;-84
2022/01/09 06:12:50;;;;;;;0.60;0.40;;;4.60;97.20;;;;;;1689025;29;20210;-85
2022/01/09 06:13:41;;;;;;;0.70;0.50;;;4.60;97.20;;;;;;1688748;29;20216;-84
2022/01/09 06:14:32;;;;;;;0.70;0.40;;;4.60;97.20;;;;;;1689059;29;20291;-86
2022/01/09 06:15:23;;;;;;;0.70;0.45;;;4.60;97.20;;;;;;1688843;29;20209;-87
2022/01/09 06:16:16;;;;;;;0.60;0.40;;;4.60;97.20;;;;;;1689060;29;20212;-85
2022/01/09 06:17:07;;;;;;;0.90;0.40;;;4.60;97.20;;;;;;1690604;29;20485;-85
2022/01/09 06:17:59;;;;;;;1.02;0.40;;;4.60;97.20;;;;;;1694825;29;20203;-85
2022/01/09 06:18:50;;;;;;;0.80;0.40;;;4.60;97.20;;;;;;1695272;29;20215;-85
2022/01/09 06:19:41;;;;;;;0.70;0.50;;;4.60;97.20;;;;;;1695261;29;20229;-85
2022/01/09 06:20:32;;;;;;;0.75;0.60;;;4.60;97.20;;;;;;1695254;29;20700;-85
2022/01/09 06:21:26;;;;;;;0.60;0.40;;;4.70;97.20;;;;;;1695174;29;20229;-85
2022/01/09 06:22:18;;;;;;;0.70;0.50;;;4.60;97.20;;;;;;1695095;29;20952;-85
2022/01/09 06:23:10;;;;;;;0.85;0.60;;;4.60;97.20;;;;;;1695108;29;20213;-84
2022/01/09 06:24:01;;;;;;;1.10;0.63;;;4.60;97.20;;;;;;1695326;29;20231;-85
2022/01/09 06:24:52;;;;;;;1.00;0.60;;;4.60;97.20;;;;;;1695254;29;20226;-85
2022/01/09 06:25:43;;;;;;;1.13;0.60;;;4.60;97.20;;;;;;1695162;29;20568;-85
2022/01/09 06:26:35;;;;;;;0.70;0.60;;;4.60;97.20;;;;;;1695288;29;20562;-86
2022/01/09 06:27:26;;;;;;;0.80;0.50;;;4.60;97.20;;;;;;1694996;29;20204;-84
2022/01/09 06:28:18;;;;;;;0.70;0.50;;;4.60;97.20;;;;;;1694911;29;20208;-85
2022/01/09 06:29:08;;;;;;;0.93;0.57;;;4.70;97.20;;;;;;1695157;29;20558;-85
2022/01/09 06:30:00;;;;;;;0.60;0.50;;;4.70;97.20;;;;;;1695230;29;20238;-84
2022/01/09 06:30:51;;;;;;;0.60;0.40;;;4.70;97.20;;;;;;1693550;29;20232;-84
2022/01/09 06:31:45;;;;;;;0.70;0.47;;;4.70;97.20;;;;;;1688692;29;20216;-85
2022/01/09 06:32:36;;;;;;;0.80;0.60;;;4.70;97.20;;;;;;1688772;29;20220;-85
2022/01/09 06:33:28;;;;;;;0.90;0.60;;;4.70;97.20;;;;;;1688614;29;20235;-85
2022/01/09 06:34:19;;;;;;;1.15;0.70;;;4.70;97.20;;;;;;1688823;29;20957;-85
2022/01/09 06:35:11;;;;;;;0.60;0.40;;;4.60;97.20;;;;;;1688792;29;20563;-84
2022/01/09 06:36:02;;;;;;;0.70;0.50;;;4.60;97.20;;;;;;1689000;29;20236;-85
2022/01/09 06:36:54;;;;;;;0.70;0.40;;;4.60;97.20;;;;;;1688504;29;20236;-85
2022/01/09 06:37:45;;;;;;;0.60;0.50;;;4.60;97.20;;;;;;1688430;29;20502;-85
2022/01/09 06:38:38;;;;;;;0.80;0.50;;;4.60;97.20;;;;;;1688611;29;20208;-85
2022/01/09 06:39:29;;;;;;;0.80;0.57;;;4.60;97.20;;;;;;1688573;29;20215;-85
2022/01/09 06:40:20;;;;;;;0.80;0.57;;;4.60;97.20;;;;;;1688311;29;20196;-84
2022/01/09 06:41:11;;;;;;;0.90;0.60;;;4.60;97.20;;;;;;1688576;29;20735;-85
2022/01/09 06:42:03;;;;;;;0.80;0.60;;;4.60;97.20;;;;;;1688546;29;20885;-85
2022/01/09 06:42:54;;;;;;;0.95;0.40;;;4.60;97.20;;;;;;1688676;29;20233;-86
2022/01/09 06:43:46;;;;;;;0.70;0.50;;;4.60;97.20;;;;;;1688608;29;20204;-85
2022/01/09 06:44:37;;;;;;;1.30;0.75;;;4.60;97.20;;;;;;1688716;29;20255;-86
2022/01/09 06:45:28;;;;;;;2.60;0.87;;;4.60;97.20;;;;;;1688521;29;20216;-85
2022/01/09 06:46:19;;;;;;;1.40;0.70;;;4.60;97.20;;;;;;1688804;29;20207;-85
2022/01/09 06:47:12;;;;;;;1.00;0.63;;;4.50;97.20;;;;;;1690395;29;20296;-85
2022/01/09 06:48:03;;;;;;;1.45;0.93;;;4.50;97.20;;;;;;1701581;29;20694;-85
2022/01/09 06:48:55;;;;;;;1.98;1.10;;;4.50;97.20;;;;;;1701340;29;20203;-85
2022/01/09 06:49:47;;;;;;;1.80;1.23;;;4.50;97.20;;;;;;1701628;29;20211;-85
2022/01/09 06:50:39;;;;;;;1.77;0.80;;;4.50;97.20;;;;;;1701745;29;20219;-84
2022/01/09 06:51:29;;;;;;;1.48;0.98;;;4.50;97.20;;;;;;1701337;29;20202;-85
2022/01/09 06:52:21;;;;;;;1.67;0.93;;;4.50;97.20;;;;;;1701749;29;20199;-85
2022/01/09 06:53:12;;;;;;;1.15;0.70;;;4.50;97.20;;;;;;1701508;29;20207;-85
2022/01/09 06:54:04;;;;;;;1.00;0.70;;;4.50;97.20;;;;;;1701725;29;20207;-87
2022/01/09 06:54:55;;;;;;;1.35;0.60;;;4.50;97.20;;;;;;1701699;29;20593;-85
2022/01/09 06:55:46;;;;;;;0.90;0.60;;;4.50;97.20;;;;;;1701454;29;20203;-85
2022/01/09 06:56:37;;;;;;;1.35;0.82;;;4.50;97.20;;;;;;1701717;29;20238;-84
2022/01/09 06:57:29;;;;;;;1.13;0.80;;;4.50;97.20;;;;;;1701477;29;20310;-85
2022/01/09 06:58:21;;;;;;;1.08;0.80;;;4.50;97.20;;;;;;1701142;29;20906;-85
2022/01/09 06:59:13;;;;;;;0.90;0.60;;;4.60;97.20;;;;;;1701240;29;20199;-85
2022/01/09 07:00:05;;;;;;;2.15;0.60;;;4.60;97.20;;;;;;1701180;29;20233;-85
2022/01/09 07:00:57;;;;;;;0.80;0.60;;;4.60;97.20;;;;;;1701407;29;20239;-85
2022/01/09 07:01:48;;;;;;;1.70;1.10;;;4.60;97.20;;;;;;1701507;29;20670;-85
2022/01/09 07:02:41;;;;;;;1.23;1.10;;;4.60;97.20;;;;;;1701320;29;20549;-84
2022/01/09 07:03:32;;;;;;;0.90;0.60;;;4.60;97.20;;;;;;1697745;29;20572;-85
2022/01/09 07:04:23;;;;;;;0.70;0.50;;;4.50;97.20;;;;;;1694749;29;20208;-85
2022/01/09 07:05:15;;;;;;;0.80;0.60;;;4.50;97.20;;;;;;1694346;29;20205;-85
2022/01/09 07:06:07;;;;;;;0.70;0.50;;;4.50;97.20;;;;;;1694625;29;20236;-85
2022/01/09 07:06:58;;;;;;;0.70;0.50;;;4.50;97.20;;;;;;1694782;29;20238;-84
2022/01/09 07:07:49;;;;;;;0.70;0.60;;;4.50;97.20;;;;;;1694498;29;20204;-85
2022/01/09 07:08:40;;;;;;;0.80;0.70;;;4.50;97.20;;;;;;1694518;29;20208;-85
2022/01/09 07:09:32;;;;;;;0.70;0.60;;;4.50;97.20;;;;;;1694622;29;20214;-84
2022/01/09 07:10:23;;;;;;;1.17;0.70;;;4.50;97.20;;;;;;1694467;29;20216;-84
2022/01/09 07:11:15;;;;;;;0.93;0.60;;;4.50;97.20;;;;;;1694849;29;20667;-84
2022/01/09 07:12:07;;;;;;;0.70;0.60;;;4.50;97.20;;;;;;1694757;29;20207;-86
2022/01/09 07:12:59;;;;;;;0.70;0.57;;;4.50;97.20;;;;;;1694939;29;20211;-85
2022/01/09 07:13:50;;;;;;;1.00;0.70;;;4.50;97.20;;;;;;1694760;29;20204;-84
2022/01/09 07:14:42;;;;;;;1.03;0.60;;;4.50;97.20;;;;;;1694838;29;20210;-85
2022/01/09 07:15:32;;;;;;;0.80;0.60;;;4.50;97.20;;;;;;1694689;29;20208;-85
2022/01/09 07:16:24;;;;;;;0.73;0.60;;;4.50;97.20;;;;;;1694833;29;20320;-84
2022/01/09 07:17:15;;;;;;;0.80;0.50;;;4.50;97.20;;;;;;1694999;29;20219;-84
2022/01/09 07:18:08;;;;;;;0.80;0.57;;;4.50;97.20;;;;;;1694499;29;20214;-84
2022/01/09 07:18:59;;;;;;;0.70;0.60;;;4.50;97.20;;;;;;1694758;29;20208;-84
2022/01/09 07:19:50;;;;;;;1.00;0.70;;;4.50;97.20;;;;;;1694305;29;20218;-86
2022/01/09 07:20:41;;;;;;;1.02;0.60;;;4.50;97.20;;;;;;1694606;29;20703;-84
2022/01/09 07:21:33;;;;;;;1.25;0.60;;;4.40;97.20;;;;;;1694651;29;20204;-85
2022/01/09 07:22:24;;;;;;;0.70;0.50;;;4.50;97.20;;;;;;1694673;29;20214;-85
2022/01/09 07:23:16;;;;;;;1.90;0.73;;;4.40;97.20;;;;;;1694445;29;20210;-85
2022/01/09 07:24:06;;;;;;;1.00;0.60;;;4.40;97.20;;;;;;1694488;29;20227;-85
2022/01/09 07:24:58;;;;;;;0.90;0.80;;;4.40;97.20;;;;;;1694836;29;20223;-84
2022/01/09 07:25:49;;;;;;;0.80;0.73;;;4.40;97.20;;;;;;1694679;29;20230;-85
2022/01/09 07:26:40;;;;;;;2.47;0.77;;;4.40;97.20;;;;;;1694649;29;20210;-86
2022/01/09 07:27:31;;;;;;;2.55;0.90;;;4.40;97.20;;;;;;1694886;29;20227;-85
2022/01/09 07:28:23;;;;;;;1.20;0.70;;;4.40;97.20;;;;;;1694681;29;20223;-84
2022/01/09 07:29:14;;;;;;;0.82;0.60;;;4.40;97.20;;;;;;1694680;29;20203;-84
2022/01/09 07:30:07;;;;;;;2.87;0.70;;;4.40;97.20;;;;;;1694720;29;20208;-85
2022/01/09 07:30:58;;;;;;;1.15;0.95;;;4.40;97.20;;;;;;1694911;29;20263;-86
2022/01/09 07:31:51;;;;;;;3.70;1.08;;;4.40;97.20;;;;;;1695007;29;20204;-85
2022/01/09 07:32:42;;;;;;;1.70;0.85;;;4.40;97.20;;;;;;1695354;29;20254;-87
2022/01/09 07:33:35;;;;;;;2.03;0.90;;;4.40;97.20;;;;;;1695024;29;20231;-84
2022/01/09 07:34:26;;;;;;;3.67;0.98;;;4.40;97.20;;;;;;1694782;29;20211;-86
2022/01/09 07:35:17;;;;;;;2.83;0.90;;;4.40;97.20;;;;;;1694813;29;20206;-85
2022/01/09 07:36:08;;;;;;;2.25;0.98;;;4.50;97.20;;;;;;1694302;29;20848;-85
2022/01/09 07:37:00;;;;;;;1.93;1.07;;;4.50;97.20;;;;;;1694753;29;20578;-84
2022/01/09 07:37:51;;;;;;;1.55;0.80;;;4.50;97.20;;;;;;1694549;29;20486;-84
2022/01/09 07:38:43;;;;;;;2.90;1.00;;;4.50;97.20;;;;;;1694408;29;20210;-86
2022/01/09 07:39:34;;;;;;;2.97;0.90;;;4.50;97.20;;;;;;1694382;29;20219;-84
2022/01/09 07:40:25;;;;;;;1.50;0.77;;;4.50;97.20;;;;;;1694797;29;20205;-85
2022/01/09 07:41:17;;;;;;;4.00;1.15;;;4.50;97.20;;;;;;1694952;29;20263;-87
2022/01/09 07:42:09;;;;;;;4.28;1.25;;;4.50;97.20;;;;;;1694631;29;20207;-84
2022/01/09 07:42:59;;;;;;;2.78;0.95;;;4.50;97.20;;;;;;1694583;29;20697;-84
2022/01/09 07:43:51;;;;;;;2.00;0.97;;;4.50;97.20;;;;;;1694716;29;20203;-87
2022/01/09 07:44:42;;;;;;;2.53;1.10;;;4.50;97.20;;;;;;1694801;29;20940;-85
2022/01/09 07:45:34;;;;;;;3.33;1.40;;;4.50;97.20;;;;;;1694838;29;20547;-85
2022/01/09 07:46:25;;;;;;;3.00;0.88;;;4.50;97.20;;;;;;1694766;29;20208;-84
2022/01/09 07:47:15;;;;;;;2.40;0.90;;;4.50;97.20;;;;;;1694734;29;20274;-85
2022/01/09 07:48:07;;;;;;;1.97;0.80;;;4.50;97.20;;;;;;1694301;29;20207;-85
2022/01/09 07:49:00;;;;;;;4.00;1.02;;;4.50;97.20;;;;;;1694638;29;20270;-85
2022/01/09 07:49:51;;;;;;;3.10;1.20;;;4.50;97.20;;;;;;1694594;29;20219;-86
2022/01/09 07:50:42;;;;;;;2.30;1.25;;;4.50;97.20;;;;;;1694570;29;20229;-84
2022/01/09 07:51:34;;;;;;;4.50;1.38;;;4.50;97.20;;;;;;1694735;29;20211;-85
2022/01/09 07:52:25;;;;;;;3.10;1.25;;;4.50;97.20;;;;;;1694496;29;20243;-85
2022/01/09 07:53:18;;;;;;;7.53;1.50;;;4.50;97.20;;;;;;1694586;29;20663;-84
2022/01/09 07:54:09;;;;;;;5.38;1.77;;;4.50;97.20;;;;;;1694459;29;20208;-85
2022/01/09 07:55:01;;;;;;;2.83;1.10;;;4.50;97.20;;;;;;1694883;29;20736;-85
2022/01/09 07:55:52;;;;;;;5.25;1.35;;;4.50;97.20;;;;;;1694718;29;20208;-85
2022/01/09 07:56:43;;;;;;;4.88;1.38;;;4.50;97.20;;;;;;1694461;29;20241;-86
2022/01/09 07:57:35;;;;;;;3.83;1.38;;;4.50;97.20;;;;;;1694620;29;20208;-84
2022/01/09 07:58:27;;;;;;;6.57;2.25;;;4.50;97.20;;;;;;1694842;29;20583;-85
2022/01/09 07:59:17;;;;;;;2.78;1.48;;;4.60;97.20;;;;;;1694736;29;20668;-84
2022/01/09 08:00:11;;;;;;;5.20;1.30;;;4.60;97.20;;;;;;1694778;29;20686;-84
2022/01/09 08:01:02;;;;;;;3.03;1.70;;;4.60;97.20;;;;;;1694996;29;20204;-84
2022/01/09 08:01:53;;;;;;;2.87;1.70;;;4.60;97.20;;;;;;1694929;29;20199;-84
2022/01/09 08:02:45;;;;;;;4.43;1.30;;;4.60;97.20;;;;;;1694947;29;20671;-85
2022/01/09 08:03:36;;;;;;;4.93;1.63;;;4.60;97.20;;;;;;1694792;29;20215;-84
2022/01/09 08:04:28;;;;;;;8.35;1.95;;;4.60;97.20;;;;;;1694573;29;20275;-85
2022/01/09 08:05:20;;;;;;;3.97;1.60;;;4.60;97.20;;;;;;1694840;29;20270;-85
2022/01/09 08:06:11;;;;;;;5.88;2.15;;;4.60;97.20;;;;;;1694431;29;20208;-85
2022/01/09 08:07:03;;;;;;;3.87;1.47;;;4.60;97.20;;;;;;1694641;29;20208;-86
2022/01/09 08:07:54;;;;;;;6.63;1.63;;;4.60;97.20;;;;;;1694462;29;20212;-84
2022/01/09 08:08:45;;;;;;;3.50;1.50;;;4.60;97.20;;;;;;1694848;29;20206;-84
2022/01/09 08:09:36;;;;;;;5.93;1.95;;;4.60;97.20;;;;;;1694813;29;20207;-85
2022/01/09 08:10:28;;;;;;;3.80;1.97;;;4.70;97.20;;;;;;1694593;29;20207;-86
2022/01/09 08:11:22;;;;;;;7.18;1.38;;;4.70;97.20;;;;;;1694796;29;20247;-84
2022/01/09 08:12:15;;;;;;;4.13;1.67;;;4.70;97.20;;;;;;1694594;29;20271;-84
2022/01/09 08:13:05;;;;;;;4.05;1.60;;;4.70;97.20;;;;;;1694971;29;20207;-85
2022/01/09 08:13:57;;;;;;;5.70;2.10;;;4.70;97.20;;;;;;1694902;29;20200;-84
2022/01/09 08:14:48;;;;;;;7.30;1.80;;;4.70;97.20;;;;;;1694490;29;20204;-85
2022/01/09 08:15:40;;;;;;;4.80;1.70;;;4.70;97.20;;;;;;1694755;29;20203;-84
2022/01/09 08:16:30;;;;;;;3.78;1.85;;;4.70;97.20;;;;;;1694786;29;20255;-84
2022/01/09 08:17:22;;;;;;;7.13;2.00;;;4.70;97.20;;;;;;1695397;29;20213;-84
2022/01/09 08:18:13;;;;;;;5.72;1.52;;;4.70;97.20;;;;;;1694850;29;20611;-84
2022/01/09 08:19:05;;;;;;;3.43;1.87;;;4.70;97.20;;;;;;1694712;29;20204;-84
2022/01/09 08:19:57;;;;;;;6.30;2.35;;;4.70;97.20;;;;;;1694778;29;20468;-85
2022/01/09 08:20:48;;;;;;;7.05;1.85;;;4.70;97.20;;;;;;1694726;29;20334;-85
2022/01/09 08:21:39;;;;;;;5.97;1.90;;;4.70;97.20;;;;;;1694952;29;20208;-84
2022/01/09 08:22:32;;;;;;;3.60;1.87;;;4.80;97.20;;;;;;1694540;29;20208;-84
2022/01/09 08:23:23;;;;;;;7.28;1.90;;;4.80;97.20;;;;;;1694465;29;20223;-85
2022/01/09 08:24:15;;;;;;;4.20;1.53;;;4.70;97.20;;;;;;1694558;29;20287;-85
2022/01/09 08:25:07;;;;;;;4.20;1.58;;;4.70;97.20;;;;;;1694498;29;20228;-85
2022/01/09 08:25:58;;;;;;;3.33;2.22;;;4.70;97.20;;;;;;1694595;29;20208;-86
2022/01/09 08:26:49;;;;;;;6.85;2.00;;;4.80;97.20;;;;;;1694452;29;20208;-84
2022/01/09 08:27:42;;;;;;;4.85;2.80;;;4.80;97.20;;;;;;1694535;29;20238;-85
2022/01/09 08:28:32;;;;;;;7.80;2.40;;;4.70;97.20;;;;;;1694502;29;20312;-84
2022/01/09 08:29:24;;;;;;;7.60;2.43;;;4.80;97.20;;;;;;1694499;29;20254;-85
2022/01/09 08:30:16;;;;;;;8.40;3.58;;;4.80;97.20;;;;;;1694494;29;20448;-84
2022/01/09 08:31:08;;;;;;;7.07;2.60;;;4.80;97.20;;;;;;1694520;29;20625;-85
2022/01/09 08:31:59;;;;;;;7.80;2.53;;;4.80;97.20;;;;;;1694467;29;20215;-84
2022/01/09 08:32:52;;;;;;;8.60;2.77;;;4.80;97.20;;;;;;1694378;29;20208;-85
2022/01/09 08:33:43;;;;;;;10.32;2.55;;;4.80;97.20;;;;;;1694629;29;20216;-85
2022/01/09 08:34:35;;;;;;;5.63;1.93;;;4.80;97.20;;;;;;1694600;29;20200;-84
2022/01/09 08:35:27;;;;;;;5.65;2.00;;;4.80;97.20;;;;;;1694697;29;20464;-84
2022/01/09 08:36:18;;;;;;;7.63;2.05;;;4.80;97.20;;;;;;1694090;29;20751;-84
2022/01/09 08:37:11;;;;;;;4.10;1.63;;;4.80;97.20;;;;;;1694647;29;20228;-84
2022/01/09 08:38:03;;;;;;;6.28;1.70;;;4.80;97.20;;;;;;1694466;29;20204;-86
2022/01/09 08:38:54;;;;;;;4.53;1.40;;;4.80;97.20;;;;;;1694278;29;20651;-84
2022/01/09 08:39:46;;;;;;;7.00;1.87;;;4.80;97.20;;;;;;1694467;29;20227;-84
2022/01/09 08:40:37;;;;;;;8.50;2.28;;;4.80;97.20;;;;;;1694237;29;20237;-84
2022/01/09 08:41:28;;;;;;;5.73;1.63;;;4.80;97.20;;;;;;1694719;29;20212;-84
2022/01/09 08:42:19;;;;;;;7.20;2.17;;;4.80;97.20;;;;;;1694940;29;20487;-83
2022/01/09 08:43:11;;;;;;;6.17;1.63;;;4.80;97.20;;;;;;1694900;29;20207;-84
2022/01/09 08:44:02;;;;;;;4.32;1.75;;;4.80;97.20;;;;;;1694692;29;20641;-84
2022/01/09 08:44:54;;;;;;;4.82;1.58;;;4.80;97.20;;;;;;1695460;29;20230;-85
2022/01/09 08:45:44;;;;;;;7.53;1.90;;;4.80;97.20;;;;;;1698461;29;20203;-85
2022/01/09 08:46:37;;;;;;;6.40;1.70;;;4.80;97.20;;;;;;1693673;29;20287;-85
2022/01/09 08:47:28;;;;;;;5.22;1.73;;;4.90;97.20;;;;;;1699970;29;20218;-87
2022/01/09 08:48:20;;;;;;;4.53;2.10;;;4.90;97.20;;;;;;1700075;29;20204;-84
2022/01/09 08:49:11;;;;;;;4.40;2.20;;;4.90;97.20;;;;;;1700563;29;20455;-84
2022/01/09 08:50:03;;;;;;;5.63;1.53;;;4.90;97.20;;;;;;1700339;29;20242;-84
2022/01/09 08:50:55;;;;;;;3.75;1.50;;;4.90;97.20;;;;;;1694638;29;20236;-85
2022/01/09 08:51:47;;;;;;;6.95;1.98;;;4.90;97.20;;;;;;1694885;29;20745;-84
2022/01/09 08:52:38;;;;;;;4.50;1.98;;;4.90;97.20;;;;;;1695197;29;20216;-85
2022/01/09 08:53:31;;;;;;;4.30;1.80;;;4.90;97.20;;;;;;1695325;29;20214;-85
2022/01/09 08:54:23;;;;;;;5.35;1.70;;;4.90;97.20;;;;;;1695906;29;20204;-85
2022/01/09 08:55:15;;;;;;;3.60;1.35;;;4.90;97.20;;;;;;1694533;29;20215;-86
2022/01/09 08:56:06;;;;;;;5.10;1.80;;;4.90;97.20;;;;;;1694915;29;20211;-85
2022/01/09 08:56:58;;;;;;;5.68;1.45;;;4.90;97.20;;;;;;1695450;29;20702;-86
2022/01/09 08:57:50;;;;;;;6.68;1.77;;;4.90;97.20;;;;;;1694603;29;20212;-87
2022/01/09 08:58:42;;;;;;;3.35;1.55;;;4.90;97.20;;;;;;1694770;29;20204;-92
2022/01/09 08:59:33;;;;;;;3.65;1.40;;;4.90;97.20;;;;;;1694835;29;20282;-86
2022/01/09 09:00:25;;;;;;;4.45;1.92;;;4.90;97.20;;;;;;1694685;29;20208;-85
2022/01/09 09:01:17;;;;;;;5.25;1.63;;;4.90;97.20;;;;;;1694796;29;20260;-85
2022/01/09 09:02:09;;;;;;;4.70;1.52;;;4.80;97.20;;;;;;1695053;29;20286;-86
2022/01/09 09:03:00;;;;;;;3.58;1.65;;;4.90;97.20;;;;;;1694970;29;20222;-86
2022/01/09 09:03:52;;;;;;;7.00;1.63;;;4.90;97.20;;;;;;1694745;29;20211;-88
2022/01/09 09:04:43;;;;;;;5.68;1.45;;;4.90;97.20;;;;;;1694696;29;20456;-86
2022/01/09 09:05:34;;;;;;;3.97;1.57;;;4.90;97.20;;;;;;1694714;29;20207;-86
2022/01/09 09:06:26;;;;;;;4.03;1.55;;;5.00;97.20;;;;;;1694472;29;20519;-85
2022/01/09 09:07:23;;;;;;;4.88;1.48;;;5.00;97.20;;;;;;1694881;29;20204;-86
2022/01/09 09:08:15;;;;;;;4.65;1.48;;;5.00;97.20;;;;;;1694519;29;20298;-85
2022/01/09 09:09:06;;;;;;;8.70;1.83;;;5.00;97.20;;;;;;1694702;29;20215;-85
2022/01/09 09:10:03;;;;;;;6.30;2.00;;;5.00;97.20;;;;;;1694629;29;20310;-85
2022/01/09 09:10:54;;;;;;;4.43;1.85;;;5.00;97.20;;;;;;1694436;29;20778;-85
2022/01/09 09:11:48;;;;;;;3.83;1.80;;;5.00;97.20;;;;;;1694607;29;20623;-85
2022/01/09 09:12:39;;;;;;;10.43;2.17;;;5.10;97.20;;;;;;1694756;29;20276;-86
2022/01/09 09:13:31;;;;;;;4.95;1.75;;;5.10;97.20;;;;;;1694689;29;20207;-84
2022/01/09 09:14:22;;;;;;;6.90;2.17;;;5.10;97.20;;;;;;1694731;29;20215;-84
2022/01/09 09:15:14;;;;;;;4.78;1.90;;;5.10;97.20;;;;;;1695405;29;20211;-85
2022/01/09 09:16:05;;;;;;;4.88;2.10;;;5.10;97.20;;;;;;1694546;29;20224;-85
2022/01/09 09:16:57;;;;;;;5.35;1.83;;;5.10;97.20;;;;;;1694377;29;20323;-85
2022/01/09 09:17:48;;;;;;;9.27;2.20;;;5.10;97.20;;;;;;1694374;29;20219;-84
2022/01/09 09:18:40;;;;;;;7.07;2.30;;;5.10;97.20;;;;;;1693411;29;20211;-85
2022/01/09 09:19:31;;;;;;;4.28;1.83;;;5.10;97.20;;;;;;1694620;29;20204;-84
2022/01/09 09:20:24;;;;;;;5.40;2.00;;;5.20;97.20;;;;;;1694544;29;20208;-84
2022/01/09 09:21:16;;;;;;;7.40;1.65;;;5.20;97.20;;;;;;1694336;29;20200;-84
2022/01/09 09:22:09;;;;;;;4.95;2.08;;;5.20;97.20;;;;;;1694458;29;20302;-85
2022/01/09 09:23:00;;;;;;;7.40;2.13;;;5.30;97.20;;;;;;1693711;29;20223;-84
2022/01/09 09:23:52;;;;;;;7.73;1.90;;;5.30;97.20;;;;;;1694643;29;20235;-85
2022/01/09 09:24:42;;;;;;;5.05;2.08;;;5.40;97.20;;;;;;1694603;29;20600;-84
2022/01/09 09:25:34;;;;;;;4.90;2.40;;;5.40;97.20;;;;;;1694637;29;20371;-83
2022/01/09 09:26:25;;;;;;;6.85;2.35;;;5.40;97.20;;;;;;1694545;29;20215;-84
2022/01/09 09:27:20;;;;;;;7.93;2.72;;;5.40;97.20;;;;;;1694589;29;20749;-84
2022/01/09 09:28:12;;;;;;;6.20;3.35;;;5.40;97.20;;;;;;1693985;29;20204;-84
2022/01/09 09:29:03;;;;;;;7.22;2.30;;;5.50;97.20;;;;;;1694464;29;20783;-85
2022/01/09 09:29:55;;;;;;;5.43;1.90;;;5.50;97.20;;;;;;1694522;29;20252;-85
2022/01/09 09:30:46;;;;;;;3.40;1.50;;;5.50;97.20;;;;;;1694474;29;20263;-86
2022/01/09 09:31:38;;;;;;;4.87;1.87;;;5.60;97.20;;;;;;1693574;29;20236;-85
2022/01/09 09:32:29;;;;;;;5.45;2.25;;;5.60;97.20;;;;;;1693929;29;20460;-82
2022/01/09 09:33:20;;;;;;;4.53;1.88;;;5.60;97.20;;;;;;1694075;29;20196;-84
2022/01/09 09:34:11;;;;;;;7.18;2.03;;;5.70;97.20;;;;;;1693628;29;20207;-84
2022/01/09 09:35:04;;;;;;;2.90;1.87;;;5.70;97.20;;;;;;1693512;29;20215;-85
2022/01/09 09:35:58;;;;;;;5.45;1.55;;;5.70;97.20;;;;;;1693938;29;20455;-85
2022/01/09 09:36:52;;;;;;;4.57;2.20;;;5.70;97.20;;;;;;1693425;29;20203;-84
2022/01/09 09:37:45;;;;;;;3.78;1.60;;;5.70;97.20;;;;;;1694136;29;20633;-83
2022/01/09 09:38:36;;;;;;;5.97;1.75;;;5.70;97.20;;;;;;1694480;29;20687;-84
2022/01/09 09:39:28;;;;;;;5.20;1.83;;;5.70;97.20;;;;;;1694886;29;20583;-83
2022/01/09 09:40:18;;;;;;;5.07;1.70;;;5.80;97.20;;;;;;1695378;29;20492;-83
2022/01/09 09:41:10;;;;;;;4.37;1.47;;;5.80;97.20;;;;;;1694930;29;20204;-83
2022/01/09 09:42:01;;;;;;;5.68;2.22;;;5.80;97.20;;;;;;1695082;29;20698;-84
2022/01/09 09:42:53;;;;;;;4.30;1.40;;;5.80;97.20;;;;;;1695478;29;20674;-83
2022/01/09 09:43:44;;;;;;;4.93;1.50;;;5.80;97.20;;;;;;1695496;29;20212;-83
2022/01/09 09:44:37;;;;;;;3.37;1.77;;;5.80;97.20;;;;;;1695265;29;20207;-83
2022/01/09 09:45:28;;;;;;;3.22;1.60;;;5.90;97.20;;;;;;1694916;29;20204;-83
2022/01/09 09:46:21;;;;;;;7.10;1.75;;;5.90;97.20;;;;;;1695299;29;20206;-84
2022/01/09 09:47:13;;;;;;;5.53;1.70;;;6.00;97.20;;;;;;1695255;29;20204;-84
2022/01/09 09:48:05;;;;;;;4.82;1.63;;;6.00;97.20;;;;;;1694909;29;20215;-83
2022/01/09 09:48:56;;;;;;;6.82;1.70;;;6.00;97.20;;;;;;1695631;29;20215;-83
2022/01/09 09:49:48;;;;;;;6.53;1.63;;;6.00;97.20;;;;;;1695306;29;20207;-83
2022/01/09 09:50:39;;;;;;;6.63;2.30;;;6.00;97.20;;;;;;1695358;29;20231;-83
2022/01/09 09:51:31;;;;;;;5.53;1.50;;;6.10;97.20;;;;;;1695445;29;20286;-85
2022/01/09 09:52:22;;;;;;;5.55;1.50;;;6.10;97.20;;;;;;1695334;29;20949;-87
2022/01/09 09:53:15;;;;;;;7.03;2.20;;;6.20;97.20;;;;;;1695642;29;20676;-83
2022/01/09 09:54:06;;;;;;;4.55;1.95;;;6.30;97.20;;;;;;1695490;29;20463;-83
2022/01/09 09:54:58;;;;;;;6.10;2.10;;;6.40;97.20;;;;;;1695460;29;20287;-84
2022/01/09 09:55:51;;;;;;;4.68;2.58;;;6.40;97.20;;;;;;1694336;29;20215;-84
2022/01/09 09:56:43;;;;;;;5.95;1.83;;;6.40;97.20;;;;;;1700656;29;20250;-84
2022/01/09 09:57:34;;;;;;;5.03;1.48;;;6.50;97.20;;;;;;1701661;29;20219;-84
2022/01/09 09:58:28;;;;;;;6.00;1.90;;;6.50;97.20;;;;;;1700864;29;20694;-85
2022/01/09 09:59:24;;;;;;;5.95;1.88;;;6.50;97.20;;;;;;1701587;29;20486;-85
2022/01/09 10:00:18;;;;;;;4.80;1.90;;;6.50;97.20;;;;;;1702380;29;20689;-87
2022/01/09 10:01:22;;;;;;;9.00;2.00;;;6.50;97.20;;;;;;1701290;29;20240;-85
2022/01/09 10:02:17;;;;;;;8.65;2.33;;;6.50;97.20;;;;;;1701814;29;20258;-85
2022/01/09 10:03:08;;;;;;;8.40;2.05;;;6.50;97.20;;;;;;1702400;29;20231;-84
2022/01/09 10:04:02;;;;;;;3.83;1.60;;;6.60;97.20;;;;;;1699022;29;20199;-85
2022/01/09 10:04:58;;;;;;;5.47;2.00;;;6.50;97.20;;;;;;1696305;29;20216;-84
2022/01/09 10:05:50;;;;;;;6.18;2.55;;;6.50;97.20;;;;;;1695579;29;20200;-86
2022/01/09 10:06:43;;;;;;;11.75;2.25;;;6.50;97.20;;;;;;1695909;29;20232;-84
2022/01/09 10:07:35;;;;;;;5.18;1.70;;;6.50;97.20;;;;;;1695390;29;20740;-86
2022/01/09 10:08:37;;;;;;;6.18;1.95;;;6.40;97.20;;;;;;1696158;29;20253;-83
2022/01/09 10:09:28;;;;;;;3.67;1.50;;;6.40;97.20;;;;;;1696087;29;20208;-85
2022/01/09 10:10:22;;;;;;;5.68;2.05;;;6.40;97.20;;;;;;1696435;29;20222;-85
2022/01/09 10:11:15;;;;;;;8.63;1.63;;;6.40;97.20;;;;;;1696415;29;20215;-85
2022/01/09 10:12:07;;;;;;;6.57;1.98;;;6.30;97.20;;;;;;1696065;29;20297;-85
2022/01/09 10:13:06;;;;;;;5.63;1.45;;;6.30;97.20;;;;;;1696341;29;20586;-85
2022/01/09 10:14:11;;;;;;;4.47;1.38;;;6.20;97.20;;;;;;1695881;29;20704;-86
2022/01/09 10:15:06;;;;;;;4.47;1.98;;;6.20;97.20;;;;;;1695875;29;20243;-86
2022/01/09 10:15:59;;;;;;;3.80;1.60;;;6.20;97.20;;;;;;1695959;29;20208;-85
2022/01/09 10:17:09;;;;;;;6.68;1.83;;;6.20;97.20;;;;;;1695495;29;20200;-85
2022/01/09 10:18:01;;;;;;;6.07;1.70;;;6.20;97.20;;;;;;1695487;29;20215;-86
2022/01/09 10:18:53;;;;;;;6.30;1.70;;;6.20;97.20;;;;;;1695787;29;20204;-82
2022/01/09 10:19:47;;;;;;;4.13;1.40;;;6.20;97.20;;;;;;1695608;29;20200;-84
2022/01/09 10:20:39;;;;;;;5.78;1.90;;;6.20;97.20;;;;;;1695394;29;20247;-84
2022/01/09 10:21:30;;;;;;;4.68;1.63;;;6.20;97.20;;;;;;1696358;29;20591;-84
2022/01/09 10:22:24;;;;;;;4.93;2.30;;;6.30;97.20;;;;;;1696624;29;20196;-86
2022/01/09 10:23:16;;;;;;;4.55;1.67;;;6.30;97.20;;;;;;1696059;29;20208;-86
2022/01/09 10:24:11;;;;;;;6.40;1.48;;;6.30;97.20;;;;;;1696013;29;20219;-85
2022/01/09 10:25:23;;;;;;;4.85;2.03;;;6.40;97.20;;;;;;1696074;29;20212;-86
2022/01/09 10:26:14;;;;;;;4.75;1.50;;;6.50;97.20;;;;;;1695041;29;20235;-85
2022/01/09 10:27:06;;;;;;;4.50;1.87;;;6.50;97.20;;;;;;1695599;29;20200;-85
2022/01/09 10:27:59;;;;;;;4.13;1.65;;;6.50;97.20;;;;;;1695166;29;20207;-85
2022/01/09 10:28:51;;;;;;;4.65;1.48;;;6.60;97.20;;;;;;1695430;29;20578;-85
2022/01/09 10:29:48;;;;;;;5.25;1.67;;;6.60;97.20;;;;;;1695904;29;20235;-85
2022/01/09 10:30:43;;;;;;;4.40;1.70;;;6.60;97.20;;;;;;1695621;29;20275;-85
2022/01/09 10:31:41;;;;;;;5.60;1.77;;;6.70;97.20;;;;;;1695097;29;20697;-87
2022/01/09 10:32:34;;;;;;;5.65;2.05;;;6.70;97.20;;;;;;1696503;29;20219;-83
2022/01/09 10:33:30;;;;;;;3.25;1.90;;;6.70;97.20;;;;;;1697025;29;20235;-83
2022/01/09 10:34:20;;;;;;;7.72;2.15;;;6.70;97.20;;;;;;1695398;29;20588;-84
2022/01/09 10:35:15;;;;;;;6.57;2.00;;;6.80;97.20;;;;;;1689287;29;20583;-85